createdAt,value
2023-02-11T00:00:18.048Z,6.19
2023-02-11T00:02:47.541Z,6.20
2023-02-11T00:05:14.405Z,6.19
2023-02-11T00:07:40.850Z,6.20
2023-02-11T00:10:08.514Z,6.19
2023-02-11T00:12:36.330Z,6.21
2023-02-11T00:15:03.445Z,6.20
2023-02-11T00:17:29.979Z,6.20
2023-02-11T00:19:56.482Z,6.19
2023-02-11T00:22:22.999Z,6.18
2023-02-11T00:24:49.547Z,6.19
2023-02-11T00:27:16.077Z,6.19
2023-02-11T00:29:42.520Z,6.18
2023-02-11T00:32:10.581Z,6.17
2023-02-11T00:34:38.056Z,6.15
2023-02-11T00:37:05.489Z,6.15
2023-02-11T00:39:32.539Z,6.14
2023-02-11T00:41:59.105Z,6.15
2023-02-11T00:44:25.594Z,6.15
2023-02-11T00:46:52.122Z,6.14
2023-02-11T00:49:18.612Z,6.14
2023-02-11T00:51:45.037Z,6.15
2023-02-11T00:54:12.326Z,6.14
2023-02-11T00:56:39.046Z,6.12
2023-02-11T00:59:05.589Z,6.12
2023-02-11T01:01:32.114Z,6.11
2023-02-11T01:03:58.638Z,6.11
2023-02-11T01:06:25.128Z,6.09
2023-02-11T01:08:51.703Z,6.07
2023-02-11T01:11:20.612Z,6.01
2023-02-11T01:13:48.560Z,5.95
2023-02-11T01:16:16.061Z,5.92
2023-02-11T01:18:44.215Z,5.89
2023-02-11T01:21:11.445Z,5.86
2023-02-11T01:23:37.941Z,5.82
2023-02-11T01:26:05.213Z,5.80
2023-02-11T01:28:31.922Z,5.74
2023-02-11T01:31:01.335Z,5.68
2023-02-11T01:33:28.092Z,5.65
2023-02-11T01:35:54.581Z,5.64
2023-02-11T01:38:26.129Z,5.67
2023-02-11T01:40:55.957Z,5.71
2023-02-11T01:43:24.093Z,5.74
2023-02-11T01:46:16.593Z,5.76
2023-02-11T01:48:47.180Z,5.77
2023-02-11T01:51:22.554Z,5.77
2023-02-11T01:54:08.794Z,5.76
2023-02-11T01:56:57.462Z,5.75
2023-02-11T01:59:32.085Z,5.74
2023-02-11T02:02:05.108Z,5.72
2023-02-11T02:04:39.880Z,5.71
2023-02-11T02:07:12.022Z,5.70
2023-02-11T02:09:43.087Z,5.70
2023-02-11T02:12:09.670Z,5.72
2023-02-11T02:14:41.126Z,5.71
2023-02-11T02:17:17.236Z,5.71
2023-02-11T02:20:05.537Z,5.71
2023-02-11T02:23:03.231Z,5.70
2023-02-11T02:25:32.377Z,5.67
2023-02-11T02:28:17.990Z,5.62
2023-02-11T02:31:02.993Z,5.54
2023-02-11T02:33:46.322Z,5.45
2023-02-11T02:36:22.771Z,5.35
2023-02-11T02:39:05.670Z,5.33
2023-02-11T02:41:35.853Z,5.34
2023-02-11T02:44:02.553Z,5.35
2023-02-11T02:46:33.142Z,5.36
2023-02-11T02:49:00.467Z,5.38
2023-02-11T02:51:49.529Z,5.36
2023-02-11T02:54:35.785Z,5.38
2023-02-11T03:00:42.323Z,5.48
2023-02-11T03:03:20.355Z,5.49
2023-02-11T03:05:58.635Z,5.49
2023-02-11T03:08:34.468Z,5.49
2023-02-11T03:11:03.359Z,5.49
2023-02-11T03:13:33.712Z,5.50
2023-02-11T03:16:25.379Z,5.51
2023-02-11T03:19:00.150Z,5.48
2023-02-11T03:21:27.813Z,5.45
2023-02-11T03:23:56.614Z,5.42
2023-02-11T03:26:44.003Z,5.39
2023-02-11T03:29:19.963Z,5.39
2023-02-11T03:32:08.065Z,5.39
2023-02-11T03:34:57.539Z,5.37
2023-02-11T03:37:28.982Z,5.37
2023-02-11T03:40:17.341Z,5.40
2023-02-11T03:42:48.760Z,5.39
2023-02-11T03:45:19.886Z,5.38
2023-02-11T03:47:51.683Z,5.34
2023-02-11T03:50:19.647Z,5.27
2023-02-11T03:52:49.867Z,5.19
2023-02-11T03:55:19.168Z,5.15
2023-02-11T03:57:47.014Z,5.09
2023-02-11T04:00:14.367Z,5.07
2023-02-11T04:02:41.387Z,5.08
2023-02-11T04:05:10.666Z,5.08
2023-02-11T04:07:37.151Z,5.12
2023-02-11T04:10:04.455Z,5.16
2023-02-11T04:12:30.885Z,5.22
2023-02-11T04:14:57.344Z,5.27
2023-02-11T04:17:24.109Z,5.31
2023-02-11T04:19:50.512Z,5.38
2023-02-11T04:22:16.949Z,5.39
2023-02-11T04:24:44.089Z,5.42
2023-02-11T04:27:10.605Z,5.45
2023-02-11T04:29:38.128Z,5.46
2023-02-11T04:32:04.869Z,5.47
2023-02-11T04:34:31.606Z,5.49
2023-02-11T04:36:58.023Z,5.51
2023-02-11T04:39:24.588Z,5.53
2023-02-11T04:41:51.211Z,5.54
2023-02-11T04:44:17.684Z,5.55
2023-02-11T04:46:44.995Z,5.57
2023-02-11T04:49:16.263Z,5.59
2023-02-11T04:51:43.082Z,5.61
2023-02-11T04:54:09.522Z,5.62
2023-02-11T04:56:36.163Z,5.63
2023-02-11T04:59:03.846Z,5.65
2023-02-11T05:01:30.453Z,5.65
2023-02-11T05:03:57.971Z,5.67
2023-02-11T05:06:24.722Z,5.67
2023-02-11T05:08:51.343Z,5.69
2023-02-11T05:11:20.430Z,5.70
2023-02-11T05:13:47.309Z,5.70
2023-02-11T05:16:14.952Z,5.71
2023-02-11T05:18:42.937Z,5.72
2023-02-11T05:21:13.455Z,5.72
2023-02-11T05:23:40.697Z,5.73
2023-02-11T05:26:08.541Z,5.75
2023-02-11T05:28:36.189Z,5.75
2023-02-11T05:31:03.229Z,5.78
2023-02-11T05:33:29.886Z,5.78
2023-02-11T05:36:06.463Z,5.78
2023-02-11T05:38:33.315Z,5.79
2023-02-11T05:41:00.648Z,5.80
2023-02-11T05:43:27.654Z,5.81
2023-02-11T05:45:54.431Z,5.82
2023-02-11T05:48:21.144Z,5.83
2023-02-11T05:50:47.652Z,5.85
2023-02-11T05:53:14.345Z,5.86
2023-02-11T05:55:41.003Z,5.86
2023-02-11T05:58:08.507Z,5.87
2023-02-11T06:00:35.340Z,5.86
2023-02-11T06:03:01.938Z,5.88
2023-02-11T06:05:28.444Z,5.89
2023-02-11T06:07:54.958Z,5.90
2023-02-11T06:10:21.457Z,5.90
2023-02-11T06:12:48.401Z,5.91
2023-02-11T06:15:14.967Z,5.92
2023-02-11T06:17:41.374Z,5.94
2023-02-11T06:20:10.419Z,5.94
2023-02-11T06:22:37.031Z,5.94
2023-02-11T06:25:03.835Z,5.97
2023-02-11T06:27:30.688Z,5.99
2023-02-11T06:29:57.109Z,6.00
2023-02-11T06:32:42.707Z,6.01
2023-02-11T06:35:12.150Z,6.02
2023-02-11T06:37:39.171Z,6.05
2023-02-11T06:40:06.324Z,6.05
2023-02-11T06:42:32.824Z,6.05
2023-02-11T06:44:59.315Z,6.07
2023-02-11T06:47:25.867Z,6.09
2023-02-11T06:49:52.367Z,6.11
2023-02-11T06:52:18.804Z,6.13
2023-02-11T06:54:45.249Z,6.14
2023-02-11T06:57:11.682Z,6.15
2023-02-11T06:59:38.131Z,6.17
2023-02-11T07:02:04.615Z,6.18
2023-02-11T07:04:31.137Z,6.18
2023-02-11T07:06:57.644Z,6.20
2023-02-11T07:09:24.057Z,6.22
2023-02-11T07:11:50.498Z,6.24
2023-02-11T07:14:16.956Z,6.25
2023-02-11T07:16:43.431Z,6.28
2023-02-11T07:19:10.509Z,6.29
2023-02-11T07:21:37.235Z,6.32
2023-02-11T07:24:10.778Z,6.34
2023-02-11T07:26:37.628Z,6.37
2023-02-11T07:29:04.110Z,6.40
2023-02-11T07:31:30.992Z,6.41
2023-02-11T07:34:00.110Z,6.47
2023-02-11T07:36:27.336Z,6.49
2023-02-11T07:38:53.958Z,6.53
2023-02-11T07:41:22.676Z,6.56
2023-02-11T07:43:49.840Z,6.60
2023-02-11T07:46:19.309Z,6.62
2023-02-11T07:48:45.856Z,6.67
2023-02-11T07:51:18.218Z,6.69
2023-02-11T07:53:45.253Z,6.71
2023-02-11T07:56:13.644Z,6.74
2023-02-11T07:58:42.110Z,6.77
2023-02-11T08:01:12.252Z,6.80
2023-02-11T08:03:39.363Z,6.81
2023-02-11T08:06:07.562Z,6.86
2023-02-11T08:08:34.261Z,6.88
2023-02-11T08:11:08.709Z,6.93
2023-02-11T08:13:35.783Z,7.00
2023-02-11T08:16:03.065Z,7.03
2023-02-11T08:18:30.399Z,7.05
2023-02-11T08:20:56.820Z,7.06
2023-02-11T08:23:23.254Z,7.07
2023-02-11T08:25:49.666Z,7.07
2023-02-11T08:28:16.154Z,7.07
2023-02-11T08:30:42.644Z,7.07
2023-02-11T08:33:09.123Z,7.05
2023-02-11T08:35:36.962Z,7.04
2023-02-11T08:38:03.438Z,7.03
2023-02-11T08:40:29.912Z,7.05
2023-02-11T08:42:56.435Z,7.07
2023-02-11T08:45:22.922Z,7.12
2023-02-11T08:47:49.344Z,7.14
2023-02-11T08:50:15.818Z,7.20
2023-02-11T08:52:43.037Z,7.27
2023-02-11T08:55:09.521Z,7.32
2023-02-11T08:57:36.081Z,7.43
2023-02-11T09:00:03.578Z,7.52
2023-02-11T09:02:30.082Z,7.55
2023-02-11T09:04:56.606Z,7.58
2023-02-11T09:07:23.077Z,7.62
2023-02-11T09:09:49.493Z,7.70
2023-02-11T09:12:15.983Z,7.79
2023-02-11T09:14:43.020Z,7.87
2023-02-11T09:17:09.668Z,7.95
2023-02-11T09:19:36.165Z,7.98
2023-02-11T09:22:02.649Z,8.02
2023-02-11T09:24:29.078Z,8.06
2023-02-11T09:26:55.554Z,8.10
2023-02-11T09:29:22.038Z,8.21
2023-02-11T09:31:48.813Z,8.29
2023-02-11T09:34:15.912Z,8.27
2023-02-11T09:36:42.448Z,8.32
2023-02-11T09:39:13.932Z,8.37
2023-02-11T09:42:01.524Z,8.40
2023-02-11T09:44:36.116Z,8.44
2023-02-11T09:47:07.126Z,8.56
2023-02-11T09:49:47.442Z,8.67
2023-02-11T09:52:25.354Z,8.89
2023-02-11T09:54:58.402Z,8.92
2023-02-11T09:57:36.493Z,9.09
2023-02-11T10:00:20.652Z,9.29
2023-02-11T10:03:26.807Z,9.40
2023-02-11T10:06:08.077Z,9.58
2023-02-11T10:08:56.859Z,9.66
2023-02-11T10:11:36.965Z,9.99
2023-02-11T10:14:28.789Z,9.95
2023-02-11T10:17:23.375Z,10.14
2023-02-11T10:20:11.530Z,10.50
2023-02-11T10:22:43.239Z,10.68
2023-02-11T10:25:40.283Z,11.39
2023-02-11T10:28:21.617Z,11.63
2023-02-11T10:30:57.618Z,12.34
2023-02-11T10:33:32.489Z,12.29
2023-02-11T10:35:59.316Z,12.32
2023-02-11T10:38:30.931Z,11.81
2023-02-11T10:40:57.459Z,11.88
2023-02-11T10:43:27.330Z,11.68
2023-02-11T10:45:55.877Z,11.59
2023-02-11T10:48:40.420Z,11.26
2023-02-11T10:51:14.660Z,11.08
2023-02-11T10:53:41.866Z,10.91
2023-02-11T10:58:55.272Z,10.87
2023-02-11T11:01:24.869Z,11.12
2023-02-11T11:03:52.900Z,11.36
2023-02-11T11:06:31.554Z,11.64
2023-02-11T11:08:58.502Z,11.81
2023-02-11T11:11:26.489Z,11.93
2023-02-11T11:13:52.901Z,13.66
2023-02-11T11:16:29.662Z,13.82
2023-02-11T11:19:08.195Z,13.64
2023-02-11T11:21:46.328Z,13.95
2023-02-11T11:24:29.322Z,14.47
2023-02-11T11:26:59.602Z,13.74
2023-02-11T11:29:44.021Z,13.02
2023-02-11T11:32:20.738Z,12.99
2023-02-11T11:34:52.607Z,13.19
2023-02-11T11:37:24.493Z,13.20
2023-02-11T11:40:02.297Z,14.41
2023-02-11T11:42:33.954Z,14.02
2023-02-11T11:45:15.378Z,13.29
2023-02-11T11:47:44.562Z,12.68
2023-02-11T11:50:22.892Z,12.29
2023-02-11T11:53:00.129Z,11.91
2023-02-11T11:56:07.554Z,11.72
2023-02-11T11:58:34.747Z,11.55
2023-02-11T12:01:38.101Z,11.31
2023-02-11T12:04:17.772Z,11.17
2023-02-11T12:07:17.453Z,11.22
2023-02-11T12:09:55.883Z,11.32
2023-02-11T12:12:52.822Z,11.44
2023-02-11T12:15:30.245Z,11.52
2023-02-11T12:18:17.966Z,11.42
2023-02-11T12:21:09.716Z,11.53
2023-02-11T12:23:55.061Z,11.61
2023-02-11T12:26:40.251Z,11.78
2023-02-11T12:29:06.685Z,12.12
2023-02-11T12:31:50.775Z,12.24
2023-02-11T12:34:43.357Z,12.45
2023-02-11T12:37:31.029Z,12.56
2023-02-11T12:40:17.321Z,12.91
2023-02-11T12:43:17.749Z,13.04
2023-02-11T12:45:52.788Z,13.15
2023-02-11T12:48:40.867Z,13.21
2023-02-11T12:51:10.137Z,13.22
2023-02-11T12:53:45.476Z,13.22
2023-02-11T12:56:22.897Z,12.89
2023-02-11T12:58:54.204Z,12.85
2023-02-11T13:01:26.842Z,12.72
2023-02-11T13:04:16.514Z,12.78
2023-02-11T13:06:51.730Z,12.79
2023-02-11T13:09:42.028Z,12.62
2023-02-11T13:12:31.311Z,12.83
2023-02-11T13:15:05.422Z,12.83
2023-02-11T13:17:54.525Z,12.99
2023-02-11T13:20:35.248Z,13.09
2023-02-11T13:23:21.209Z,12.99
2023-02-11T13:26:02.552Z,13.06
2023-02-11T13:29:01.116Z,12.82
2023-02-11T13:31:29.982Z,12.82
2023-02-11T13:33:56.708Z,12.88
2023-02-11T13:36:25.827Z,12.86
2023-02-11T13:39:20.780Z,12.68
2023-02-11T13:41:52.470Z,12.72
2023-02-11T13:44:23.735Z,12.62
2023-02-11T13:47:10.480Z,12.46
2023-02-11T13:49:41.304Z,12.50
2023-02-11T13:52:39.528Z,12.37
2023-02-11T13:55:12.017Z,12.32
2023-02-11T13:57:40.414Z,12.21
2023-02-11T14:00:34.992Z,12.10
2023-02-11T14:03:29.122Z,11.99
2023-02-11T14:06:26.432Z,11.83
2023-02-11T14:09:17.276Z,11.68
2023-02-11T14:11:49.859Z,11.60
2023-02-11T14:14:27.496Z,11.53
2023-02-11T14:17:00.026Z,11.48
2023-02-11T14:19:38.521Z,11.36
2023-02-11T14:22:08.173Z,11.37
2023-02-11T14:24:34.823Z,11.30
2023-02-11T14:27:28.158Z,11.34
2023-02-11T14:30:09.305Z,11.39
2023-02-11T14:32:45.680Z,11.52
2023-02-11T14:35:34.913Z,11.43
2023-02-11T14:38:33.999Z,11.42
2023-02-11T14:41:25.242Z,11.41
2023-02-11T14:44:11.121Z,11.53
2023-02-11T14:46:37.820Z,11.62
2023-02-11T14:49:05.502Z,11.62
2023-02-11T14:51:36.411Z,11.70
2023-02-11T14:54:13.300Z,11.69
2023-02-11T14:56:39.781Z,11.56
2023-02-11T14:59:22.394Z,11.55
2023-02-11T15:01:50.779Z,11.36
2023-02-11T15:04:28.026Z,11.22
2023-02-11T15:06:57.439Z,11.18
2023-02-11T15:09:33.946Z,11.16
2023-02-11T15:12:00.900Z,11.13
2023-02-11T15:14:33.392Z,11.01
2023-02-11T15:17:03.702Z,10.90
2023-02-11T15:19:35.716Z,10.81
2023-02-11T15:22:24.770Z,10.64
2023-02-11T15:25:07.973Z,10.54
2023-02-11T15:27:42.221Z,10.52
2023-02-11T15:30:20.996Z,10.46
2023-02-11T15:32:48.775Z,10.38
2023-02-11T15:35:15.311Z,10.27
2023-02-11T15:37:42.006Z,10.23
2023-02-11T15:40:18.826Z,10.18
2023-02-11T15:43:04.926Z,10.04
2023-02-11T15:45:35.944Z,9.93
2023-02-11T15:48:14.305Z,9.77
2023-02-11T15:50:50.098Z,9.72
2023-02-11T15:53:30.577Z,9.63
2023-02-11T15:56:02.895Z,9.60
2023-02-11T15:58:29.540Z,9.54
2023-02-11T16:00:59.682Z,9.47
2023-02-11T16:03:32.393Z,9.39
2023-02-11T16:06:20.105Z,9.35
2023-02-11T16:09:16.940Z,9.28
2023-02-11T16:11:46.222Z,9.27
2023-02-11T16:14:27.139Z,9.27
2023-02-11T16:16:58.700Z,9.20
2023-02-11T16:19:27.093Z,9.13
2023-02-11T16:21:56.085Z,9.02
2023-02-11T16:24:26.271Z,8.95
2023-02-11T16:26:57.006Z,8.86
2023-02-11T16:29:27.110Z,8.77
2023-02-11T16:32:05.655Z,8.71
2023-02-11T16:34:32.113Z,8.69
2023-02-11T16:36:58.791Z,8.67
2023-02-11T16:39:25.301Z,8.66
2023-02-11T16:41:52.358Z,8.66
2023-02-11T16:44:19.307Z,8.65
2023-02-11T16:46:46.081Z,8.62
2023-02-11T16:49:20.415Z,8.60
2023-02-11T16:51:49.874Z,8.62
2023-02-11T16:54:18.207Z,8.63
2023-02-11T16:56:45.228Z,8.61
2023-02-11T16:59:12.443Z,8.60
2023-02-11T17:01:40.845Z,8.57
2023-02-11T17:04:10.634Z,8.57
2023-02-11T17:06:37.161Z,8.59
2023-02-11T17:09:05.688Z,8.59
2023-02-11T17:11:32.168Z,8.56
2023-02-11T17:13:58.824Z,8.56
2023-02-11T17:16:26.248Z,8.56
2023-02-11T17:18:52.855Z,8.52
2023-02-11T17:21:19.390Z,8.49
2023-02-11T17:23:46.008Z,8.43
2023-02-11T17:26:12.515Z,8.38
2023-02-11T17:28:39.004Z,8.35
2023-02-11T17:31:09.532Z,8.36
2023-02-11T17:33:37.800Z,8.32
2023-02-11T17:36:08.596Z,8.30
2023-02-11T17:38:36.486Z,8.28
2023-02-11T17:41:04.788Z,8.28
2023-02-11T17:43:31.860Z,8.24
2023-02-11T17:45:58.481Z,8.20
2023-02-11T17:48:25.023Z,8.15
2023-02-11T17:50:51.502Z,8.14
2023-02-11T17:53:17.998Z,8.12
2023-02-11T17:55:44.647Z,8.11
2023-02-11T17:58:11.216Z,8.11
2023-02-11T18:00:37.747Z,8.11
2023-02-11T18:03:04.374Z,8.09
2023-02-11T18:05:35.731Z,8.04
2023-02-11T18:08:03.178Z,8.02
2023-02-11T18:10:29.753Z,7.98
2023-02-11T18:12:56.298Z,7.98
2023-02-11T18:15:23.249Z,7.95
2023-02-11T18:17:49.773Z,7.93
2023-02-11T18:20:16.324Z,7.87
2023-02-11T18:22:44.129Z,7.85
2023-02-11T18:25:14.768Z,7.85
2023-02-11T18:27:41.847Z,7.87
2023-02-11T18:30:14.051Z,7.86
2023-02-11T18:32:40.567Z,7.83
2023-02-11T18:35:14.856Z,7.84
2023-02-11T18:37:42.632Z,7.81
2023-02-11T18:40:10.419Z,7.83
2023-02-11T18:42:37.026Z,7.85
2023-02-11T18:45:05.441Z,7.88
2023-02-11T18:47:32.342Z,7.85
2023-02-11T18:49:58.969Z,7.86
2023-02-11T18:52:25.969Z,7.86
2023-02-11T18:54:52.457Z,7.87
2023-02-11T18:57:18.887Z,7.87
2023-02-11T18:59:45.392Z,7.87
2023-02-11T19:02:12.038Z,7.83
2023-02-11T19:04:38.558Z,7.81
2023-02-11T19:07:05.196Z,7.82
2023-02-11T19:09:31.814Z,7.83
2023-02-11T19:12:00.785Z,7.84
2023-02-11T19:14:28.452Z,7.84
2023-02-11T19:16:57.399Z,7.87
2023-02-11T19:19:26.806Z,7.84
2023-02-11T19:21:53.941Z,7.87
2023-02-11T19:24:21.952Z,7.85
2023-02-11T19:26:49.743Z,7.84
2023-02-11T19:29:16.789Z,7.86
2023-02-11T19:31:44.174Z,7.86
2023-02-11T19:34:15.357Z,7.87
2023-02-11T19:36:42.349Z,7.87
2023-02-11T19:39:09.619Z,7.88
2023-02-11T19:41:36.498Z,7.86
2023-02-11T19:44:04.630Z,7.87
2023-02-11T19:46:33.611Z,7.89
2023-02-11T19:49:00.928Z,7.90
2023-02-11T19:51:28.034Z,7.88
2023-02-11T19:53:54.497Z,7.91
2023-02-11T19:56:22.364Z,7.90
2023-02-11T19:58:48.915Z,7.91
2023-02-11T20:01:18.853Z,7.91
2023-02-11T20:03:49.802Z,7.89
2023-02-11T20:06:23.379Z,7.91
2023-02-11T20:08:58.226Z,7.89
2023-02-11T20:11:25.805Z,7.89
2023-02-11T20:13:52.235Z,7.89
2023-02-11T20:16:21.435Z,7.91
2023-02-11T20:18:49.872Z,7.85
2023-02-11T20:21:18.545Z,7.86
2023-02-11T20:23:46.433Z,7.85
2023-02-11T20:26:21.499Z,7.86
2023-02-11T20:28:49.477Z,7.84
2023-02-11T20:31:16.829Z,7.84
2023-02-11T20:33:44.234Z,7.81
2023-02-11T20:36:20.292Z,7.82
2023-02-11T20:38:47.928Z,7.83
2023-02-11T20:41:26.580Z,7.83
2023-02-11T20:43:54.948Z,7.81
2023-02-11T20:46:24.738Z,7.82
2023-02-11T20:48:52.239Z,7.83
2023-02-11T20:51:23.451Z,7.82
2023-02-11T20:53:51.219Z,7.81
2023-02-11T20:56:21.513Z,7.83
2023-02-11T20:58:48.892Z,7.80
2023-02-11T21:01:21.359Z,7.78
2023-02-11T21:03:58.074Z,7.78
2023-02-11T21:06:27.534Z,7.80
2023-02-11T21:08:54.194Z,7.80
2023-02-11T21:11:21.085Z,7.79
2023-02-11T21:13:48.665Z,7.80
2023-02-11T21:16:22.374Z,7.79
2023-02-11T21:18:50.163Z,7.79
2023-02-11T21:21:18.272Z,7.74
2023-02-11T21:23:45.884Z,7.76
2023-02-11T21:26:13.016Z,7.77
2023-02-11T21:28:41.076Z,7.74
2023-02-11T21:31:09.524Z,7.74
2023-02-11T21:33:36.034Z,7.76
2023-02-11T21:36:04.426Z,7.79
2023-02-11T21:38:30.927Z,7.80
2023-02-11T21:41:03.380Z,7.78
2023-02-11T21:43:29.944Z,7.77
2023-02-11T21:45:56.692Z,7.75
2023-02-11T21:48:25.552Z,7.74
2023-02-11T21:50:52.883Z,7.77
2023-02-11T21:53:19.756Z,7.77
2023-02-11T21:55:46.219Z,7.72
2023-02-11T21:58:13.154Z,7.70
2023-02-11T22:00:39.628Z,7.67
2023-02-11T22:03:06.200Z,7.70
2023-02-11T22:05:32.702Z,7.69
2023-02-11T22:07:59.233Z,7.67
2023-02-11T22:10:25.645Z,7.68
2023-02-11T22:12:52.119Z,7.68
2023-02-11T22:15:18.699Z,7.68
2023-02-11T22:17:45.191Z,7.68
2023-02-11T22:20:11.939Z,7.67
2023-02-11T22:22:38.449Z,7.64
2023-02-11T22:25:05.396Z,7.64
2023-02-11T22:27:31.963Z,7.65
2023-02-11T22:29:58.385Z,7.63
2023-02-11T22:32:24.871Z,7.62
2023-02-11T22:34:53.284Z,7.65
2023-02-11T22:37:20.451Z,7.64
2023-02-11T22:39:47.203Z,7.60
2023-02-11T22:42:13.649Z,7.59
2023-02-11T22:44:40.091Z,7.61
2023-02-11T22:47:06.668Z,7.56
2023-02-11T22:49:33.212Z,7.56
2023-02-11T22:51:59.938Z,7.56
2023-02-11T22:54:26.617Z,7.53
2023-02-11T22:56:53.568Z,7.54
2023-02-11T22:59:20.596Z,7.57
2023-02-11T23:01:47.197Z,7.52
2023-02-11T23:04:16.819Z,7.53
2023-02-11T23:06:43.424Z,7.55
2023-02-11T23:09:12.272Z,7.54
2023-02-11T23:11:39.281Z,7.55
2023-02-11T23:14:05.899Z,7.54
2023-02-11T23:16:34.522Z,7.52
2023-02-11T23:19:04.979Z,7.54
2023-02-11T23:21:33.457Z,7.55
2023-02-11T23:24:05.812Z,7.56
2023-02-11T23:26:32.352Z,7.55
2023-02-11T23:28:59.409Z,7.55
2023-02-11T23:31:29.645Z,7.52
2023-02-11T23:33:56.378Z,7.50
2023-02-11T23:36:23.556Z,7.52
2023-02-11T23:38:50.147Z,7.51
2023-02-11T23:41:17.567Z,7.49
2023-02-11T23:43:48.703Z,7.45
2023-02-11T23:46:15.190Z,7.46
2023-02-11T23:48:41.709Z,7.47
2023-02-11T23:51:09.732Z,7.47
2023-02-11T23:53:38.075Z,7.47
2023-02-11T23:56:15.067Z,7.46
2023-02-11T23:58:41.677Z,7.46
